createdAt,value
2023-08-04T00:01:16.174Z,1.90
2023-08-04T00:11:18.990Z,1.62
2023-08-04T00:21:21.201Z,0.75
2023-08-04T00:31:23.771Z,0.60
2023-08-04T00:41:25.967Z,1.70
2023-08-04T00:51:28.435Z,1.37
2023-08-04T01:01:30.819Z,1.02
2023-08-04T01:11:41.654Z,1.15
2023-08-04T01:21:44.849Z,1.62
2023-08-04T01:31:47.982Z,2.40
2023-08-04T01:41:50.470Z,0.85
2023-08-04T01:51:52.722Z,1.50
2023-08-04T02:01:54.975Z,1.40
2023-08-04T02:11:57.408Z,0.98
2023-08-04T02:22:00.125Z,0.85
2023-08-04T02:32:02.435Z,1.37
2023-08-04T02:42:04.788Z,1.25
2023-08-04T02:52:07.655Z,2.58
2023-08-04T03:02:10.080Z,3.22
2023-08-04T03:12:12.898Z,1.35
2023-08-04T03:22:15.727Z,1.48
2023-08-04T03:32:18.615Z,2.17
2023-08-04T03:42:21.051Z,1.05
2023-08-04T03:52:24.749Z,1.25
2023-08-04T04:12:30.698Z,1.35
2023-08-04T04:22:36.042Z,2.45
2023-08-04T04:32:38.982Z,1.85
2023-08-04T04:42:42.386Z,0.98
2023-08-04T04:52:45.419Z,1.60
2023-08-04T05:02:48.582Z,1.42
2023-08-04T05:12:52.303Z,2.53
2023-08-04T05:22:55.856Z,1.17
2023-08-04T05:33:02.256Z,0.80
2023-08-04T05:43:06.187Z,0.50
2023-08-04T05:53:09.124Z,1.62
2023-08-04T06:03:11.891Z,0.80
2023-08-04T06:13:14.771Z,1.40
2023-08-04T06:23:17.288Z,0.95
2023-08-04T06:33:19.992Z,1.17
2023-08-04T06:43:22.835Z,0.50
2023-08-04T06:53:25.405Z,1.27
2023-08-04T07:03:28.496Z,0.95
2023-08-04T07:13:31.569Z,1.00
2023-08-04T07:23:42.572Z,1.27
2023-08-04T07:33:47.827Z,1.48
2023-08-04T07:43:53.575Z,1.83
2023-08-04T07:54:01.463Z,1.33
2023-08-04T08:04:05.607Z,1.08
2023-08-04T08:14:08.290Z,0.37
2023-08-04T08:24:11.474Z,0.93
2023-08-04T08:34:14.154Z,0.20
2023-08-04T08:44:16.976Z,0.33
2023-08-04T08:54:20.488Z,1.10
2023-08-04T09:04:25.185Z,0.57
2023-08-04T09:14:28.748Z,0.22
2023-08-04T09:24:31.876Z,2.03
2023-08-04T09:44:38.928Z,1.17
2023-08-04T10:04:57.836Z,1.08
2023-08-04T10:15:01.581Z,0.80
2023-08-04T10:25:19.176Z,0.37
2023-08-04T10:35:24.009Z,0.88
2023-08-04T10:45:53.028Z,0.60
2023-08-04T10:55:59.098Z,1.27
2023-08-04T11:06:02.833Z,0.75
2023-08-04T11:16:06.210Z,0.45
2023-08-04T11:26:09.924Z,0.98
2023-08-04T11:36:14.602Z,0.37
2023-08-04T11:46:24.425Z,0.60
2023-08-04T11:56:41.514Z,0.98
2023-08-04T12:06:44.929Z,0.30
2023-08-04T12:27:01.108Z,0.10
2023-08-04T12:37:03.982Z,0.30
2023-08-04T12:47:12.597Z,0.00
2023-08-04T12:57:15.836Z,0.20
2023-08-04T13:07:19.398Z,0.17
2023-08-04T13:17:22.395Z,0.10
2023-08-04T13:27:25.684Z,0.43
2023-08-04T13:37:29.341Z,0.43
2023-08-04T13:47:32.468Z,0.13
2023-08-04T13:57:40.952Z,0.30
2023-08-04T14:07:45.359Z,0.57
2023-08-04T14:27:52.019Z,1.20
2023-08-04T14:37:55.458Z,0.53
2023-08-04T14:47:59.316Z,0.52
2023-08-04T14:58:02.612Z,1.02
2023-08-04T15:08:05.849Z,1.10
2023-08-04T15:18:09.588Z,1.13
2023-08-04T15:28:15.373Z,1.75
2023-08-04T15:38:18.446Z,3.78
2023-08-04T15:48:21.295Z,0.80
2023-08-04T15:58:26.213Z,0.45
2023-08-04T16:08:31.414Z,0.37
2023-08-04T16:18:36.709Z,0.75
2023-08-04T16:28:40.163Z,0.50
2023-08-04T16:38:43.801Z,0.62
2023-08-04T16:48:48.204Z,0.43
2023-08-04T16:58:52.001Z,0.70
2023-08-04T17:19:00.554Z,1.42
2023-08-04T17:29:06.037Z,1.10
2023-08-04T17:39:11.032Z,1.33
2023-08-04T17:49:14.371Z,0.88
2023-08-04T17:59:17.251Z,0.95
2023-08-04T18:09:20.062Z,0.93
2023-08-04T18:19:22.982Z,1.07
2023-08-04T18:29:25.939Z,1.80
2023-08-04T18:39:28.549Z,1.13
2023-08-04T18:49:31.329Z,0.98
2023-08-04T18:59:34.144Z,1.30
2023-08-04T19:09:37.233Z,1.08
2023-08-04T19:19:40.166Z,2.17
2023-08-04T19:29:43.079Z,2.00
2023-08-04T19:39:45.921Z,1.13
2023-08-04T19:49:48.816Z,1.10
2023-08-04T19:59:51.625Z,0.80
2023-08-04T20:09:54.715Z,1.00
2023-08-04T20:19:57.506Z,0.77
2023-08-04T20:30:00.413Z,1.67
2023-08-04T20:40:03.234Z,1.55
2023-08-04T20:50:06.849Z,1.25
2023-08-04T21:00:10.061Z,1.62
2023-08-04T21:10:13.161Z,3.13
2023-08-04T21:20:19.908Z,1.17
2023-08-04T21:30:23.486Z,1.15
2023-08-04T21:40:26.175Z,2.80
2023-08-04T21:50:33.176Z,1.20
2023-08-04T22:00:36.231Z,1.85
2023-08-04T22:10:38.848Z,2.67
2023-08-04T22:20:41.543Z,2.35
2023-08-04T22:30:44.269Z,2.42
2023-08-04T22:40:47.060Z,2.83
2023-08-04T22:50:49.801Z,2.53
2023-08-04T23:00:54.052Z,2.83
2023-08-04T23:10:59.013Z,4.53
2023-08-04T23:21:01.676Z,3.28
2023-08-04T23:31:04.487Z,2.90
2023-08-04T23:41:07.146Z,2.72
2023-08-04T23:51:10.554Z,5.68
